sensor_id;sensor_type;location;lat;lon;timestamp;pressure;altitude;pressure_sealevel;temperature;humidity
54389;BME280;40975;50.390;8.640;2023-07-16T00:01:37;98698.38;;;18.56;100.00
54389;BME280;40975;50.390;8.640;2023-07-16T00:04:02;98710.13;;;18.55;100.00
54389;BME280;40975;50.390;8.640;2023-07-16T00:06:27;98724.19;;;18.51;100.00
54389;BME280;40975;50.390;8.640;2023-07-16T00:08:53;98710.75;;;18.51;100.00
54389;BME280;40975;50.390;8.640;2023-07-16T00:11:18;98710.34;;;18.47;100.00
54389;BME280;40975;50.390;8.640;2023-07-16T00:13:43;98709.56;;;18.46;100.00
54389;BME280;40975;50.390;8.640;2023-07-16T00:16:12;98661.38;;;18.45;100.00
54389;BME280;40975;50.390;8.640;2023-07-16T00:18:38;98681.44;;;18.42;100.00
54389;BME280;40975;50.390;8.640;2023-07-16T00:21:03;98675.66;;;18.39;100.00
54389;BME280;40975;50.390;8.640;2023-07-16T00:23:28;98677.50;;;18.38;100.00
54389;BME280;40975;50.390;8.640;2023-07-16T00:25:54;98667.78;;;18.37;100.00
54389;BME280;40975;50.390;8.640;2023-07-16T00:28:19;98603.75;;;18.34;100.00
54389;BME280;40975;50.390;8.640;2023-07-16T00:30:44;98668.22;;;18.34;100.00
54389;BME280;40975;50.390;8.640;2023-07-16T00:33:10;98713.88;;;18.34;100.00
54389;BME280;40975;50.390;8.640;2023-07-16T00:35:35;98729.16;;;18.33;100.00
54389;BME280;40975;50.390;8.640;2023-07-16T00:38:00;98708.28;;;18.29;100.00
54389;BME280;40975;50.390;8.640;2023-07-16T00:40:26;98718.22;;;18.28;100.00
54389;BME280;40975;50.390;8.640;2023-07-16T00:42:52;98685.59;;;18.25;100.00
54389;BME280;40975;50.390;8.640;2023-07-16T00:45:17;98691.75;;;18.18;100.00
54389;BME280;40975;50.390;8.640;2023-07-16T00:47:45;98663.88;;;18.13;100.00
54389;BME280;40975;50.390;8.640;2023-07-16T00:50:11;98695.28;;;18.06;100.00
54389;BME280;40975;50.390;8.640;2023-07-16T00:52:37;98682.88;;;18.05;100.00
54389;BME280;40975;50.390;8.640;2023-07-16T00:55:03;98697.13;;;17.98;100.00
54389;BME280;40975;50.390;8.640;2023-07-16T00:57:29;98693.81;;;17.96;100.00
54389;BME280;40975;50.390;8.640;2023-07-16T00:59:55;98694.22;;;17.86;100.00
54389;BME280;40975;50.390;8.640;2023-07-16T01:02:20;98707.00;;;17.84;100.00
54389;BME280;40975;50.390;8.640;2023-07-16T01:04:46;98713.59;;;17.82;100.00
54389;BME280;40975;50.390;8.640;2023-07-16T01:07:13;98710.91;;;17.75;100.00
54389;BME280;40975;50.390;8.640;2023-07-16T01:09:42;98687.16;;;17.72;100.00
54389;BME280;40975;50.390;8.640;2023-07-16T01:12:09;98692.75;;;17.70;100.00
54389;BME280;40975;50.390;8.640;2023-07-16T01:14:35;98677.44;;;17.64;100.00
54389;BME280;40975;50.390;8.640;2023-07-16T01:17:04;98673.72;;;17.65;100.00
54389;BME280;40975;50.390;8.640;2023-07-16T01:19:29;98671.88;;;17.59;100.00
54389;BME280;40975;50.390;8.640;2023-07-16T01:30:17;98663.56;;;17.47;100.00
54389;BME280;40975;50.390;8.640;2023-07-16T01:32:46;98672.22;;;17.36;100.00
54389;BME280;40975;50.390;8.640;2023-07-16T01:35:12;98684.16;;;17.33;100.00
54389;BME280;40975;50.390;8.640;2023-07-16T01:37:39;98694.28;;;17.31;100.00
54389;BME280;40975;50.390;8.640;2023-07-16T01:40:07;98707.25;;;17.28;100.00
54389;BME280;40975;50.390;8.640;2023-07-16T01:42:34;98693.63;;;17.22;100.00
54389;BME280;40975;50.390;8.640;2023-07-16T01:44:59;98692.16;;;17.20;100.00
54389;BME280;40975;50.390;8.640;2023-07-16T01:47:50;98696.06;;;17.17;100.00
54389;BME280;40975;50.390;8.640;2023-07-16T01:50:20;98712.13;;;17.11;100.00
54389;BME280;40975;50.390;8.640;2023-07-16T01:52:45;98706.31;;;17.00;100.00
54389;BME280;40975;50.390;8.640;2023-07-16T01:55:10;98706.41;;;16.92;100.00
54389;BME280;40975;50.390;8.640;2023-07-16T01:57:36;98725.19;;;16.92;100.00
54389;BME280;40975;50.390;8.640;2023-07-16T02:00:01;98739.00;;;16.89;100.00
54389;BME280;40975;50.390;8.640;2023-07-16T02:02:30;98749.72;;;16.89;100.00
54389;BME280;40975;50.390;8.640;2023-07-16T02:04:55;98748.44;;;16.85;100.00
54389;BME280;40975;50.390;8.640;2023-07-16T02:07:20;98756.72;;;16.90;100.00
54389;BME280;40975;50.390;8.640;2023-07-16T02:09:46;98756.09;;;16.88;100.00
54389;BME280;40975;50.390;8.640;2023-07-16T02:12:11;98752.97;;;16.84;100.00
54389;BME280;40975;50.390;8.640;2023-07-16T02:14:36;98744.31;;;16.82;100.00
54389;BME280;40975;50.390;8.640;2023-07-16T02:17:02;98749.63;;;16.75;100.00
54389;BME280;40975;50.390;8.640;2023-07-16T02:19:28;98747.31;;;16.72;100.00
54389;BME280;40975;50.390;8.640;2023-07-16T02:21:55;98741.97;;;16.72;100.00
54389;BME280;40975;50.390;8.640;2023-07-16T02:24:20;98749.97;;;16.66;100.00
54389;BME280;40975;50.390;8.640;2023-07-16T02:26:45;98754.69;;;16.63;100.00
54389;BME280;40975;50.390;8.640;2023-07-16T02:29:10;98756.31;;;16.58;100.00
54389;BME280;40975;50.390;8.640;2023-07-16T02:31:37;98751.31;;;16.55;100.00
54389;BME280;40975;50.390;8.640;2023-07-16T02:34:02;98752.13;;;16.48;100.00
54389;BME280;40975;50.390;8.640;2023-07-16T02:36:27;98765.88;;;16.45;100.00
54389;BME280;40975;50.390;8.640;2023-07-16T02:38:53;98764.63;;;16.41;100.00
54389;BME280;40975;50.390;8.640;2023-07-16T02:41:18;98771.81;;;16.41;100.00
54389;BME280;40975;50.390;8.640;2023-07-16T02:43:45;98773.84;;;16.39;100.00
54389;BME280;40975;50.390;8.640;2023-07-16T02:46:12;98773.03;;;16.38;100.00
54389;BME280;40975;50.390;8.640;2023-07-16T02:48:37;98782.28;;;16.36;100.00
54389;BME280;40975;50.390;8.640;2023-07-16T02:51:03;98786.63;;;16.37;100.00
54389;BME280;40975;50.390;8.640;2023-07-16T02:53:28;98785.53;;;16.31;100.00
54389;BME280;40975;50.390;8.640;2023-07-16T02:55:53;98792.09;;;16.28;100.00
54389;BME280;40975;50.390;8.640;2023-07-16T02:58:19;98791.66;;;16.25;100.00
54389;BME280;40975;50.390;8.640;2023-07-16T03:00:44;98803.13;;;16.19;100.00
54389;BME280;40975;50.390;8.640;2023-07-16T03:03:09;98802.88;;;16.13;100.00
54389;BME280;40975;50.390;8.640;2023-07-16T03:05:35;98797.06;;;16.10;100.00
54389;BME280;40975;50.390;8.640;2023-07-16T03:08:00;98803.84;;;16.06;100.00
54389;BME280;40975;50.390;8.640;2023-07-16T03:10:25;98792.47;;;16.04;100.00
54389;BME280;40975;50.390;8.640;2023-07-16T03:12:52;98801.09;;;15.99;100.00
54389;BME280;40975;50.390;8.640;2023-07-16T03:15:18;98804.97;;;15.96;100.00
54389;BME280;40975;50.390;8.640;2023-07-16T03:17:44;98812.34;;;15.94;100.00
54389;BME280;40975;50.390;8.640;2023-07-16T03:20:09;98807.94;;;15.87;100.00
54389;BME280;40975;50.390;8.640;2023-07-16T03:22:35;98820.94;;;15.90;100.00
54389;BME280;40975;50.390;8.640;2023-07-16T03:25:00;98818.84;;;15.85;100.00
54389;BME280;40975;50.390;8.640;2023-07-16T03:27:26;98820.19;;;15.81;100.00
54389;BME280;40975;50.390;8.640;2023-07-16T03:29:56;98818.06;;;15.76;100.00
54389;BME280;40975;50.390;8.640;2023-07-16T03:32:23;98826.31;;;15.75;100.00
54389;BME280;40975;50.390;8.640;2023-07-16T03:34:48;98826.47;;;15.73;100.00
54389;BME280;40975;50.390;8.640;2023-07-16T03:37:13;98836.91;;;15.68;100.00
54389;BME280;40975;50.390;8.640;2023-07-16T03:39:39;98830.72;;;15.67;100.00
54389;BME280;40975;50.390;8.640;2023-07-16T03:42:04;98829.25;;;15.65;100.00
54389;BME280;40975;50.390;8.640;2023-07-16T03:44:30;98834.16;;;15.61;100.00
54389;BME280;40975;50.390;8.640;2023-07-16T03:46:57;98836.00;;;15.61;100.00
54389;BME280;40975;50.390;8.640;2023-07-16T03:49:22;98841.53;;;15.59;100.00
54389;BME280;40975;50.390;8.640;2023-07-16T03:51:47;98850.56;;;15.58;100.00
54389;BME280;40975;50.390;8.640;2023-07-16T03:54:13;98842.09;;;15.54;100.00
54389;BME280;40975;50.390;8.640;2023-07-16T03:56:38;98852.53;;;15.49;100.00
54389;BME280;40975;50.390;8.640;2023-07-16T03:59:04;98863.38;;;15.48;100.00
54389;BME280;40975;50.390;8.640;2023-07-16T04:01:29;98859.16;;;15.38;100.00
54389;BME280;40975;50.390;8.640;2023-07-16T04:03:55;98868.56;;;15.34;100.00
54389;BME280;40975;50.390;8.640;2023-07-16T04:06:20;98866.59;;;15.28;100.00
54389;BME280;40975;50.390;8.640;2023-07-16T04:08:46;98866.25;;;15.31;100.00
54389;BME280;40975;50.390;8.640;2023-07-16T04:11:11;98864.69;;;15.22;100.00
54389;BME280;40975;50.390;8.640;2023-07-16T04:13:36;98877.38;;;15.20;100.00
54389;BME280;40975;50.390;8.640;2023-07-16T04:16:02;98883.94;;;15.17;100.00
54389;BME280;40975;50.390;8.640;2023-07-16T04:18:27;98875.72;;;15.19;100.00
54389;BME280;40975;50.390;8.640;2023-07-16T04:20:53;98885.13;;;15.15;100.00
54389;BME280;40975;50.390;8.640;2023-07-16T04:23:20;98885.50;;;15.12;100.00
54389;BME280;40975;50.390;8.640;2023-07-16T04:25:45;98883.00;;;15.10;100.00
54389;BME280;40975;50.390;8.640;2023-07-16T04:28:12;98895.38;;;15.11;100.00
54389;BME280;40975;50.390;8.640;2023-07-16T04:30:37;98890.84;;;15.12;100.00
54389;BME280;40975;50.390;8.640;2023-07-16T04:33:04;98898.31;;;15.16;100.00
54389;BME280;40975;50.390;8.640;2023-07-16T04:35:29;98904.97;;;15.20;100.00
54389;BME280;40975;50.390;8.640;2023-07-16T04:37:55;98893.44;;;15.20;100.00
54389;BME280;40975;50.390;8.640;2023-07-16T04:40:20;98899.22;;;15.23;100.00
54389;BME280;40975;50.390;8.640;2023-07-16T04:42:45;98900.09;;;15.24;100.00
54389;BME280;40975;50.390;8.640;2023-07-16T04:45:11;98900.19;;;15.31;100.00
54389;BME280;40975;50.390;8.640;2023-07-16T04:47:36;98912.00;;;15.36;100.00
54389;BME280;40975;50.390;8.640;2023-07-16T04:50:02;98910.44;;;15.42;100.00
54389;BME280;40975;50.390;8.640;2023-07-16T04:52:27;98922.72;;;15.51;100.00
54389;BME280;40975;50.390;8.640;2023-07-16T04:54:52;98922.16;;;15.56;100.00
54389;BME280;40975;50.390;8.640;2023-07-16T04:57:18;98922.22;;;15.63;100.00
54389;BME280;40975;50.390;8.640;2023-07-16T04:59:43;98924.63;;;15.73;100.00
54389;BME280;40975;50.390;8.640;2023-07-16T05:02:08;98924.72;;;15.79;100.00
54389;BME280;40975;50.390;8.640;2023-07-16T05:04:34;98924.47;;;15.89;100.00
54389;BME280;40975;50.390;8.640;2023-07-16T05:07:03;98935.47;;;15.94;100.00
54389;BME280;40975;50.390;8.640;2023-07-16T05:09:28;98931.56;;;15.97;100.00
54389;BME280;40975;50.390;8.640;2023-07-16T05:11:54;98923.81;;;16.02;100.00
54389;BME280;40975;50.390;8.640;2023-07-16T05:14:19;98937.09;;;16.10;100.00
54389;BME280;40975;50.390;8.640;2023-07-16T05:16:44;98931.75;;;16.10;100.00
54389;BME280;40975;50.390;8.640;2023-07-16T05:19:10;98939.75;;;16.25;100.00
54389;BME280;40975;50.390;8.640;2023-07-16T05:21:35;98942.31;;;16.34;100.00
54389;BME280;40975;50.390;8.640;2023-07-16T05:24:01;98944.88;;;16.42;100.00
54389;BME280;40975;50.390;8.640;2023-07-16T05:26:26;98944.38;;;16.53;100.00
54389;BME280;40975;50.390;8.640;2023-07-16T05:28:51;98946.69;;;16.56;100.00
54389;BME280;40975;50.390;8.640;2023-07-16T05:31:16;98949.13;;;16.73;100.00
54389;BME280;40975;50.390;8.640;2023-07-16T05:33:42;98952.25;;;17.20;100.00
54389;BME280;40975;50.390;8.640;2023-07-16T05:36:07;98966.34;;;17.92;100.00
54389;BME280;40975;50.390;8.640;2023-07-16T05:38:32;98976.41;;;18.67;100.00
54389;BME280;40975;50.390;8.640;2023-07-16T05:41:02;98981.88;;;19.48;100.00
54389;BME280;40975;50.390;8.640;2023-07-16T05:43:28;98975.53;;;20.28;98.13
54389;BME280;40975;50.390;8.640;2023-07-16T05:45:53;98989.19;;;20.85;93.93
54389;BME280;40975;50.390;8.640;2023-07-16T05:48:18;98994.28;;;21.25;92.16
54389;BME280;40975;50.390;8.640;2023-07-16T05:50:44;99001.22;;;21.40;87.18
54389;BME280;40975;50.390;8.640;2023-07-16T05:53:10;98997.59;;;21.78;86.37
54389;BME280;40975;50.390;8.640;2023-07-16T05:55:35;99004.81;;;21.84;85.02
54389;BME280;40975;50.390;8.640;2023-07-16T05:58:01;99004.25;;;21.76;82.32
54389;BME280;40975;50.390;8.640;2023-07-16T06:00:26;99015.56;;;22.28;81.19
54389;BME280;40975;50.390;8.640;2023-07-16T06:02:51;99012.06;;;22.77;77.50
54389;BME280;40975;50.390;8.640;2023-07-16T06:05:17;99017.88;;;22.92;76.82
54389;BME280;40975;50.390;8.640;2023-07-16T06:07:43;99017.44;;;23.50;75.67
54389;BME280;40975;50.390;8.640;2023-07-16T06:10:08;99018.66;;;23.11;74.11
54389;BME280;40975;50.390;8.640;2023-07-16T06:12:33;99026.34;;;22.65;75.24
54389;BME280;40975;50.390;8.640;2023-07-16T06:14:59;99022.75;;;22.53;74.80
54389;BME280;40975;50.390;8.640;2023-07-16T06:17:24;99021.78;;;22.96;75.64
54389;BME280;40975;50.390;8.640;2023-07-16T06:19:50;99029.34;;;23.49;72.68
54389;BME280;40975;50.390;8.640;2023-07-16T06:22:17;99016.97;;;22.98;70.45
54389;BME280;40975;50.390;8.640;2023-07-16T06:24:42;99020.41;;;23.18;71.88
54389;BME280;40975;50.390;8.640;2023-07-16T06:27:07;99031.34;;;23.11;72.05
54389;BME280;40975;50.390;8.640;2023-07-16T06:29:33;99027.94;;;23.46;70.67
54389;BME280;40975;50.390;8.640;2023-07-16T06:31:58;99035.00;;;22.18;73.76
54389;BME280;40975;50.390;8.640;2023-07-16T06:34:24;99029.06;;;22.96;70.60
54389;BME280;40975;50.390;8.640;2023-07-16T06:36:50;99028.47;;;22.63;71.77
54389;BME280;40975;50.390;8.640;2023-07-16T06:39:15;99029.59;;;23.71;70.00
54389;BME280;40975;50.390;8.640;2023-07-16T06:41:40;99030.19;;;24.20;69.11
54389;BME280;40975;50.390;8.640;2023-07-16T06:44:07;99031.75;;;24.04;67.60
54389;BME280;40975;50.390;8.640;2023-07-16T06:46:32;99026.72;;;24.37;66.22
54389;BME280;40975;50.390;8.640;2023-07-16T06:48:57;99025.03;;;24.60;63.02
54389;BME280;40975;50.390;8.640;2023-07-16T06:51:23;99031.94;;;24.27;63.97
54389;BME280;40975;50.390;8.640;2023-07-16T06:53:48;99040.16;;;24.32;63.86
54389;BME280;40975;50.390;8.640;2023-07-16T06:56:14;99044.13;;;24.94;61.64
54389;BME280;40975;50.390;8.640;2023-07-16T06:58:39;99034.84;;;24.49;61.12
54389;BME280;40975;50.390;8.640;2023-07-16T07:01:04;99040.25;;;24.49;63.81
54389;BME280;40975;50.390;8.640;2023-07-16T07:03:29;99032.00;;;25.13;59.49
54389;BME280;40975;50.390;8.640;2023-07-16T07:05:55;99039.81;;;25.10;59.12
54389;BME280;40975;50.390;8.640;2023-07-16T07:08:20;99038.09;;;26.06;57.33
54389;BME280;40975;50.390;8.640;2023-07-16T07:10:48;99032.84;;;26.38;54.70
54389;BME280;40975;50.390;8.640;2023-07-16T07:13:14;99034.16;;;25.97;55.09
54389;BME280;40975;50.390;8.640;2023-07-16T07:15:39;99037.09;;;25.56;56.21
54389;BME280;40975;50.390;8.640;2023-07-16T07:18:04;99022.97;;;24.38;60.47
54389;BME280;40975;50.390;8.640;2023-07-16T07:20:29;99033.94;;;25.01;57.17
54389;BME280;40975;50.390;8.640;2023-07-16T07:22:55;99037.09;;;26.29;54.35
54389;BME280;40975;50.390;8.640;2023-07-16T07:25:20;99041.97;;;25.93;54.07
54389;BME280;40975;50.390;8.640;2023-07-16T07:27:45;99049.69;;;26.80;50.91
54389;BME280;40975;50.390;8.640;2023-07-16T07:30:11;99053.22;;;26.80;50.84
54389;BME280;40975;50.390;8.640;2023-07-16T07:32:37;99041.44;;;25.74;52.54
54389;BME280;40975;50.390;8.640;2023-07-16T07:35:02;99044.28;;;26.01;53.56
54389;BME280;40975;50.390;8.640;2023-07-16T07:37:28;99048.72;;;26.47;51.82
54389;BME280;40975;50.390;8.640;2023-07-16T07:39:53;99059.41;;;26.76;49.17
54389;BME280;40975;50.390;8.640;2023-07-16T07:42:19;99053.56;;;25.66;52.18
54389;BME280;40975;50.390;8.640;2023-07-16T07:44:44;99057.47;;;24.55;54.43
54389;BME280;40975;50.390;8.640;2023-07-16T07:47:09;99054.28;;;23.39;57.86
54389;BME280;40975;50.390;8.640;2023-07-16T07:49:35;99062.47;;;23.74;56.52
54389;BME280;40975;50.390;8.640;2023-07-16T07:52:00;99052.41;;;25.16;51.68
54389;BME280;40975;50.390;8.640;2023-07-16T07:54:25;99049.22;;;24.49;53.54
54389;BME280;40975;50.390;8.640;2023-07-16T07:56:51;99051.75;;;25.72;52.65
54389;BME280;40975;50.390;8.640;2023-07-16T07:59:16;99060.44;;;25.91;54.70
54389;BME280;40975;50.390;8.640;2023-07-16T08:01:41;99051.38;;;26.64;50.47
54389;BME280;40975;50.390;8.640;2023-07-16T08:04:07;99051.75;;;25.72;52.20
54389;BME280;40975;50.390;8.640;2023-07-16T08:06:32;99056.09;;;27.23;46.58
54389;BME280;40975;50.390;8.640;2023-07-16T08:08:57;99047.84;;;26.19;48.21
54389;BME280;40975;50.390;8.640;2023-07-16T08:11:23;99060.47;;;26.97;46.64
54389;BME280;40975;50.390;8.640;2023-07-16T08:13:49;99056.00;;;28.16;44.32
54389;BME280;40975;50.390;8.640;2023-07-16T08:16:14;99049.34;;;27.58;44.81
54389;BME280;40975;50.390;8.640;2023-07-16T08:18:39;99061.56;;;27.88;44.34
54389;BME280;40975;50.390;8.640;2023-07-16T08:21:05;99065.03;;;28.16;44.02
54389;BME280;40975;50.390;8.640;2023-07-16T08:23:30;99058.09;;;28.51;43.17
54389;BME280;40975;50.390;8.640;2023-07-16T08:25:55;99067.34;;;29.24;40.25
54389;BME280;40975;50.390;8.640;2023-07-16T08:28:21;99072.41;;;27.45;43.43
54389;BME280;40975;50.390;8.640;2023-07-16T08:30:47;99057.91;;;26.85;44.36
54389;BME280;40975;50.390;8.640;2023-07-16T08:33:13;99051.69;;;25.38;47.28
54389;BME280;40975;50.390;8.640;2023-07-16T08:35:40;99065.16;;;25.15;48.67
54389;BME280;40975;50.390;8.640;2023-07-16T08:38:05;99064.28;;;26.51;45.32
54389;BME280;40975;50.390;8.640;2023-07-16T08:40:35;99060.16;;;25.53;47.21
54389;BME280;40975;50.390;8.640;2023-07-16T08:43:00;99060.56;;;27.35;45.36
54389;BME280;40975;50.390;8.640;2023-07-16T08:45:28;99064.00;;;28.96;41.99
54389;BME280;40975;50.390;8.640;2023-07-16T08:47:54;99071.91;;;27.86;44.14
54389;BME280;40975;50.390;8.640;2023-07-16T08:50:21;99078.69;;;28.21;43.70
54389;BME280;40975;50.390;8.640;2023-07-16T08:52:46;99072.56;;;29.72;41.64
54389;BME280;40975;50.390;8.640;2023-07-16T08:55:12;99077.75;;;29.79;40.14
54389;BME280;40975;50.390;8.640;2023-07-16T08:57:39;99074.72;;;29.24;41.96
54389;BME280;40975;50.390;8.640;2023-07-16T09:00:06;99091.56;;;27.88;43.94
54389;BME280;40975;50.390;8.640;2023-07-16T09:02:32;99088.53;;;28.22;44.71
54389;BME280;40975;50.390;8.640;2023-07-16T09:04:58;99085.41;;;29.77;41.28
54389;BME280;40975;50.390;8.640;2023-07-16T09:07:24;99084.53;;;27.65;43.63
54389;BME280;40975;50.390;8.640;2023-07-16T09:09:59;99082.69;;;25.54;49.00
54389;BME280;40975;50.390;8.640;2023-07-16T09:12:25;99083.75;;;26.82;48.89
54389;BME280;40975;50.390;8.640;2023-07-16T09:14:50;99074.56;;;25.71;51.00
54389;BME280;40975;50.390;8.640;2023-07-16T09:17:25;99081.50;;;24.63;51.59
54389;BME280;40975;50.390;8.640;2023-07-16T09:19:51;99070.63;;;23.98;53.18
54389;BME280;40975;50.390;8.640;2023-07-16T09:22:18;99079.00;;;23.97;55.34
54389;BME280;40975;50.390;8.640;2023-07-16T09:24:45;99077.53;;;23.70;55.85
54389;BME280;40975;50.390;8.640;2023-07-16T09:27:11;99075.63;;;23.71;55.99
54389;BME280;40975;50.390;8.640;2023-07-16T09:29:38;99074.56;;;23.60;57.58
54389;BME280;40975;50.390;8.640;2023-07-16T09:32:04;99072.28;;;23.99;55.68
54389;BME280;40975;50.390;8.640;2023-07-16T09:34:30;99077.00;;;24.80;50.64
54389;BME280;40975;50.390;8.640;2023-07-16T09:36:57;99071.19;;;24.12;52.66
54389;BME280;40975;50.390;8.640;2023-07-16T09:39:23;99068.81;;;23.56;54.32
54389;BME280;40975;50.390;8.640;2023-07-16T09:41:50;99066.72;;;25.91;49.09
54389;BME280;40975;50.390;8.640;2023-07-16T09:44:16;99065.16;;;27.56;43.60
54389;BME280;40975;50.390;8.640;2023-07-16T09:46:42;99070.09;;;28.50;42.10
54389;BME280;40975;50.390;8.640;2023-07-16T09:49:09;99082.31;;;29.11;41.05
54389;BME280;40975;50.390;8.640;2023-07-16T09:51:35;99064.22;;;26.68;43.59
54389;BME280;40975;50.390;8.640;2023-07-16T09:54:02;99069.81;;;27.61;42.39
54389;BME280;40975;50.390;8.640;2023-07-16T09:56:34;99066.44;;;26.27;45.30
54389;BME280;40975;50.390;8.640;2023-07-16T09:59:01;99077.13;;;26.56;45.71
54389;BME280;40975;50.390;8.640;2023-07-16T10:01:28;99081.56;;;25.50;45.86
54389;BME280;40975;50.390;8.640;2023-07-16T10:03:54;99079.19;;;23.83;49.01
54389;BME280;40975;50.390;8.640;2023-07-16T10:06:21;99065.63;;;23.83;50.38
54389;BME280;40975;50.390;8.640;2023-07-16T10:08:49;99068.53;;;25.52;47.76
54389;BME280;40975;50.390;8.640;2023-07-16T10:11:16;99069.38;;;24.65;48.04
54389;BME280;40975;50.390;8.640;2023-07-16T10:13:42;99084.16;;;25.44;48.17
54389;BME280;40975;50.390;8.640;2023-07-16T10:16:07;99078.81;;;24.75;49.63
54389;BME280;40975;50.390;8.640;2023-07-16T10:18:35;99075.75;;;24.47;51.10
54389;BME280;40975;50.390;8.640;2023-07-16T10:21:04;99075.78;;;24.24;52.49
54389;BME280;40975;50.390;8.640;2023-07-16T10:23:43;99075.31;;;23.91;51.87
54389;BME280;40975;50.390;8.640;2023-07-16T10:26:12;99078.66;;;25.10;48.53
54389;BME280;40975;50.390;8.640;2023-07-16T10:28:38;99060.44;;;24.41;48.82
54389;BME280;40975;50.390;8.640;2023-07-16T10:31:03;99063.19;;;24.17;51.92
54389;BME280;40975;50.390;8.640;2023-07-16T10:33:29;99074.56;;;23.72;53.10
54389;BME280;40975;50.390;8.640;2023-07-16T10:35:56;99072.66;;;23.37;53.60
54389;BME280;40975;50.390;8.640;2023-07-16T10:38:22;99061.78;;;25.71;48.58
54389;BME280;40975;50.390;8.640;2023-07-16T10:40:47;99070.63;;;26.35;45.65
54389;BME280;40975;50.390;8.640;2023-07-16T10:43:13;99064.34;;;27.61;42.23
54389;BME280;40975;50.390;8.640;2023-07-16T10:45:38;99060.31;;;28.54;41.01
54389;BME280;40975;50.390;8.640;2023-07-16T10:48:04;99076.13;;;29.52;39.65
54389;BME280;40975;50.390;8.640;2023-07-16T10:50:32;99071.19;;;30.01;38.26
54389;BME280;40975;50.390;8.640;2023-07-16T10:52:58;99073.34;;;30.24;37.95
54389;BME280;40975;50.390;8.640;2023-07-16T10:55:25;99064.00;;;27.85;40.07
54389;BME280;40975;50.390;8.640;2023-07-16T10:57:51;99074.34;;;27.23;41.11
54389;BME280;40975;50.390;8.640;2023-07-16T11:00:17;99071.81;;;25.88;43.07
54389;BME280;40975;50.390;8.640;2023-07-16T11:02:45;99074.31;;;27.45;41.69
54389;BME280;40975;50.390;8.640;2023-07-16T11:05:15;99070.44;;;28.11;40.34
54389;BME280;40975;50.390;8.640;2023-07-16T11:10:11;99072.38;;;28.69;39.73
54389;BME280;40975;50.390;8.640;2023-07-16T11:12:36;99073.13;;;28.06;39.80
54389;BME280;40975;50.390;8.640;2023-07-16T11:15:02;99071.72;;;27.33;41.27
54389;BME280;40975;50.390;8.640;2023-07-16T11:17:28;99076.13;;;28.04;41.00
54389;BME280;40975;50.390;8.640;2023-07-16T11:19:54;99070.00;;;27.87;40.72
54389;BME280;40975;50.390;8.640;2023-07-16T11:22:26;99064.66;;;26.38;41.47
54389;BME280;40975;50.390;8.640;2023-07-16T11:24:53;99054.19;;;25.56;42.35
54389;BME280;40975;50.390;8.640;2023-07-16T11:27:26;99065.31;;;25.09;43.73
54389;BME280;40975;50.390;8.640;2023-07-16T11:29:57;99063.22;;;26.30;42.62
54389;BME280;40975;50.390;8.640;2023-07-16T11:32:37;99061.53;;;26.96;41.62
54389;BME280;40975;50.390;8.640;2023-07-16T11:35:05;99063.66;;;26.44;42.17
54389;BME280;40975;50.390;8.640;2023-07-16T11:37:34;99063.41;;;26.23;42.38
54389;BME280;40975;50.390;8.640;2023-07-16T11:40:03;99068.47;;;27.36;41.86
54389;BME280;40975;50.390;8.640;2023-07-16T11:42:34;99061.56;;;27.51;39.43
54389;BME280;40975;50.390;8.640;2023-07-16T11:44:59;99052.69;;;26.17;41.13
54389;BME280;40975;50.390;8.640;2023-07-16T11:47:26;99057.63;;;26.03;43.15
54389;BME280;40975;50.390;8.640;2023-07-16T11:49:52;99056.19;;;26.34;42.98
54389;BME280;40975;50.390;8.640;2023-07-16T11:52:27;99054.91;;;26.20;42.59
54389;BME280;40975;50.390;8.640;2023-07-16T11:54:54;99045.31;;;25.44;42.33
54389;BME280;40975;50.390;8.640;2023-07-16T11:57:20;99048.34;;;25.82;42.76
54389;BME280;40975;50.390;8.640;2023-07-16T11:59:45;99049.41;;;26.15;42.04
54389;BME280;40975;50.390;8.640;2023-07-16T12:02:11;99047.19;;;25.95;41.84
54389;BME280;40975;50.390;8.640;2023-07-16T12:04:37;99038.47;;;25.92;42.15
54389;BME280;40975;50.390;8.640;2023-07-16T12:07:02;99049.34;;;25.58;42.81
54389;BME280;40975;50.390;8.640;2023-07-16T12:09:28;99038.66;;;26.25;41.52
54389;BME280;40975;50.390;8.640;2023-07-16T12:11:53;99048.72;;;26.25;41.37
54389;BME280;40975;50.390;8.640;2023-07-16T12:14:19;99051.06;;;26.82;41.23
54389;BME280;40975;50.390;8.640;2023-07-16T12:16:44;99053.84;;;26.88;40.66
54389;BME280;40975;50.390;8.640;2023-07-16T12:19:10;99060.13;;;26.88;40.59
54389;BME280;40975;50.390;8.640;2023-07-16T12:21:35;99041.13;;;26.49;39.81
54389;BME280;40975;50.390;8.640;2023-07-16T12:24:01;99049.53;;;26.69;41.10
54389;BME280;40975;50.390;8.640;2023-07-16T12:26:27;99049.84;;;25.72;42.28
54389;BME280;40975;50.390;8.640;2023-07-16T12:28:53;99045.34;;;26.17;41.93
54389;BME280;40975;50.390;8.640;2023-07-16T12:31:18;99045.63;;;26.82;40.88
54389;BME280;40975;50.390;8.640;2023-07-16T12:33:45;99035.03;;;26.42;40.11
54389;BME280;40975;50.390;8.640;2023-07-16T12:36:11;99036.81;;;26.31;40.52
54389;BME280;40975;50.390;8.640;2023-07-16T12:38:36;99029.88;;;26.18;40.97
54389;BME280;40975;50.390;8.640;2023-07-16T12:41:01;99043.06;;;25.92;41.18
54389;BME280;40975;50.390;8.640;2023-07-16T12:43:27;99048.22;;;26.72;40.57
54389;BME280;40975;50.390;8.640;2023-07-16T12:45:52;99045.34;;;26.17;40.48
54389;BME280;40975;50.390;8.640;2023-07-16T12:48:17;99044.34;;;26.46;39.46
54389;BME280;40975;50.390;8.640;2023-07-16T12:50:43;99052.97;;;26.60;39.68
54389;BME280;40975;50.390;8.640;2023-07-16T12:53:08;99038.03;;;26.01;40.73
54389;BME280;40975;50.390;8.640;2023-07-16T12:55:33;99046.91;;;26.30;39.93
54389;BME280;40975;50.390;8.640;2023-07-16T12:57:59;99052.03;;;26.49;40.93
54389;BME280;40975;50.390;8.640;2023-07-16T13:00:24;99055.38;;;27.33;40.68